createdAt,value
2017-07-11T00:00:38.981Z,17.30
2017-07-11T00:03:06.487Z,17.30
2017-07-11T00:05:33.991Z,17.30
2017-07-11T00:08:01.663Z,17.30
2017-07-11T00:10:29.180Z,17.20
2017-07-11T00:12:56.707Z,17.30
2017-07-11T00:15:24.517Z,17.20
2017-07-11T00:17:52.051Z,17.30
2017-07-11T00:20:19.559Z,17.20
2017-07-11T00:22:47.204Z,17.10
2017-07-11T00:25:14.714Z,17.20
2017-07-11T00:27:42.214Z,17.20
2017-07-11T00:30:09.855Z,17.20
2017-07-11T00:32:37.365Z,17.20
2017-07-11T00:35:04.900Z,17.20
2017-07-11T00:37:32.764Z,17.10
2017-07-11T00:40:00.267Z,17.10
2017-07-11T00:42:27.780Z,17.10
2017-07-11T00:44:55.396Z,17.10
2017-07-11T00:47:22.900Z,17.10
2017-07-11T00:49:50.408Z,17.10
2017-07-11T00:52:18.270Z,17.10
2017-07-11T00:54:45.811Z,17.10
2017-07-11T00:57:13.315Z,17.10
2017-07-11T00:59:41.196Z,17.10
2017-07-11T01:02:09.337Z,17.10
2017-07-11T01:04:36.897Z,17.00
2017-07-11T01:07:04.793Z,17.00
2017-07-11T01:09:32.299Z,17.00
2017-07-11T01:12:00.061Z,16.90
2017-07-11T01:14:27.927Z,17.00
2017-07-11T01:16:55.431Z,16.90
2017-07-11T01:19:22.948Z,17.00
2017-07-11T01:21:50.755Z,16.90
2017-07-11T01:24:18.264Z,16.90
2017-07-11T01:26:45.774Z,16.90
2017-07-11T01:29:13.399Z,16.90
2017-07-11T01:31:40.978Z,16.80
2017-07-11T01:34:08.496Z,16.90
2017-07-11T01:36:36.069Z,16.90
2017-07-11T01:39:03.587Z,16.80
2017-07-11T01:41:31.101Z,16.70
2017-07-11T01:43:59.482Z,16.70
2017-07-11T01:46:26.997Z,16.60
2017-07-11T01:48:54.526Z,16.60
2017-07-11T01:51:22.202Z,16.50
2017-07-11T01:53:49.512Z,16.40
2017-07-11T01:56:17.152Z,16.40
2017-07-11T01:58:44.712Z,16.40
2017-07-11T02:01:12.232Z,16.40
2017-07-11T02:03:40.818Z,16.30
2017-07-11T02:06:08.380Z,16.40
2017-07-11T02:08:35.908Z,16.40
2017-07-11T02:11:03.451Z,16.30
2017-07-11T02:13:31.385Z,16.30
2017-07-11T02:15:58.916Z,16.40
2017-07-11T02:18:26.440Z,16.30
2017-07-11T02:20:54.240Z,16.30
2017-07-11T02:23:21.746Z,16.30
2017-07-11T02:25:49.253Z,16.30
2017-07-11T02:28:16.820Z,16.40
2017-07-11T02:30:44.340Z,16.30
2017-07-11T02:33:11.883Z,16.20
2017-07-11T02:35:39.435Z,16.20
2017-07-11T02:38:06.991Z,16.20
2017-07-11T02:40:34.767Z,16.30
2017-07-11T02:43:02.328Z,16.20
2017-07-11T02:45:29.902Z,16.20
2017-07-11T02:47:57.452Z,16.20
2017-07-11T02:50:25.343Z,16.20
2017-07-11T02:52:52.877Z,16.20
2017-07-11T02:55:20.380Z,16.30
2017-07-11T02:57:47.932Z,16.30
2017-07-11T03:00:15.445Z,16.30
2017-07-11T03:02:43.011Z,16.30
2017-07-11T03:05:10.964Z,16.30
2017-07-11T03:07:38.595Z,16.30
2017-07-11T03:10:06.116Z,16.30
2017-07-11T03:12:33.719Z,16.40
2017-07-11T03:15:01.306Z,16.50
2017-07-11T03:17:29.091Z,16.50
2017-07-11T03:19:56.963Z,16.50
2017-07-11T03:22:24.523Z,16.50
2017-07-11T03:24:52.155Z,16.40
2017-07-11T03:27:20.231Z,16.60
2017-07-11T03:29:47.739Z,16.50
2017-07-11T03:32:15.490Z,16.40
2017-07-11T03:34:43.295Z,16.40
2017-07-11T03:37:10.883Z,16.50
2017-07-11T03:39:38.407Z,16.50
2017-07-11T03:42:06.012Z,16.40
2017-07-11T03:44:33.535Z,16.50
2017-07-11T03:47:01.152Z,16.50
2017-07-11T03:49:28.709Z,16.50
2017-07-11T03:51:56.436Z,16.50
2017-07-11T03:54:23.949Z,16.50
2017-07-11T03:56:51.677Z,16.50
2017-07-11T03:59:19.305Z,16.50
2017-07-11T04:01:46.817Z,16.40
2017-07-11T04:04:14.700Z,16.40
2017-07-11T04:06:42.345Z,16.40
2017-07-11T04:09:09.963Z,16.50
2017-07-11T04:11:37.632Z,16.50
2017-07-11T04:14:05.246Z,16.50
2017-07-11T04:16:32.988Z,16.60
2017-07-11T04:19:00.558Z,16.60
2017-07-11T04:21:28.075Z,16.50
2017-07-11T04:23:55.597Z,16.60
2017-07-11T04:26:23.448Z,16.60
2017-07-11T04:28:51.087Z,16.50
2017-07-11T04:31:18.713Z,16.60
2017-07-11T04:33:46.356Z,16.50
2017-07-11T04:36:13.908Z,16.50
2017-07-11T04:38:41.608Z,16.60
2017-07-11T04:41:09.220Z,16.80
2017-07-11T04:43:36.733Z,16.80
2017-07-11T04:46:04.240Z,16.80
2017-07-11T04:48:32.314Z,17.00
2017-07-11T04:50:59.824Z,17.60
2017-07-11T04:53:27.351Z,18.10
2017-07-11T04:55:55.125Z,18.40
2017-07-11T04:58:22.643Z,18.60
2017-07-11T05:00:50.159Z,18.90
2017-07-11T05:03:17.779Z,18.90
2017-07-11T05:05:45.316Z,18.90
2017-07-11T05:08:12.827Z,18.70
2017-07-11T05:10:40.696Z,18.50
2017-07-11T05:13:08.246Z,18.60
2017-07-11T05:15:35.759Z,19.30
2017-07-11T05:18:03.665Z,19.20
2017-07-11T05:20:31.200Z,18.90
2017-07-11T05:22:58.767Z,18.60
2017-07-11T05:25:26.331Z,18.30
2017-07-11T05:27:53.849Z,18.30
2017-07-11T05:30:21.643Z,18.30
2017-07-11T05:32:49.554Z,19.10
2017-07-11T05:35:17.863Z,19.80
2017-07-11T05:37:45.744Z,20.20
2017-07-11T05:40:13.636Z,20.10
2017-07-11T05:42:41.388Z,19.60
2017-07-11T05:45:09.303Z,19.30
2017-07-11T05:47:37.137Z,19.40
2017-07-11T05:50:04.797Z,19.60
2017-07-11T05:52:32.574Z,19.60
2017-07-11T05:55:00.487Z,19.60
2017-07-11T05:57:28.247Z,19.40
2017-07-11T05:59:55.752Z,19.60
2017-07-11T06:02:23.816Z,19.70
2017-07-11T06:04:51.327Z,19.50
2017-07-11T06:07:18.828Z,19.60
2017-07-11T06:09:46.378Z,19.60
2017-07-11T06:12:13.886Z,19.50
2017-07-11T06:14:41.466Z,19.40
2017-07-11T06:17:09.251Z,19.50
2017-07-11T06:19:36.828Z,19.60
2017-07-11T06:22:04.331Z,19.60
2017-07-11T06:24:32.140Z,19.40
2017-07-11T06:26:59.651Z,19.40
2017-07-11T06:29:27.163Z,19.60
2017-07-11T06:31:54.784Z,19.70
2017-07-11T06:36:56.548Z,20.00
2017-07-11T06:39:24.048Z,20.30
2017-07-11T06:41:51.556Z,20.40
2017-07-11T06:44:20.189Z,20.30
2017-07-11T06:46:47.746Z,20.10
2017-07-11T06:49:15.520Z,20.80
2017-07-11T06:51:43.304Z,21.20
2017-07-11T06:54:10.960Z,22.10
2017-07-11T06:56:38.715Z,23.20
2017-07-11T06:59:06.496Z,24.40
2017-07-11T07:01:34.163Z,25.30
2017-07-11T07:04:01.928Z,24.70
2017-07-11T07:06:29.700Z,25.50
2017-07-11T07:08:57.280Z,25.60
2017-07-11T07:11:25.052Z,25.40
2017-07-11T07:13:52.887Z,24.60
2017-07-11T07:16:20.560Z,24.80
2017-07-11T07:18:48.278Z,25.30
2017-07-11T07:21:16.155Z,24.80
2017-07-11T07:23:43.744Z,25.20
2017-07-11T07:26:11.800Z,25.70
2017-07-11T07:28:39.456Z,26.00
2017-07-11T07:31:07.202Z,25.80
2017-07-11T07:33:34.999Z,25.90
2017-07-11T07:36:02.515Z,25.10
2017-07-11T07:38:30.052Z,24.50
2017-07-11T07:40:57.877Z,23.60
2017-07-11T07:43:25.398Z,23.40
2017-07-11T07:45:52.949Z,23.90
2017-07-11T07:48:20.508Z,23.60
2017-07-11T07:50:48.219Z,24.30
2017-07-11T07:53:15.760Z,23.80
2017-07-11T07:55:43.345Z,23.40
2017-07-11T07:58:11.918Z,23.40
2017-07-11T08:00:39.776Z,22.80
2017-07-11T08:03:08.136Z,23.30
2017-07-11T08:05:36.673Z,23.90
2017-07-11T08:08:04.268Z,24.80
2017-07-11T08:10:31.858Z,24.30
2017-07-11T08:12:59.449Z,24.30
2017-07-11T08:15:26.976Z,24.70
2017-07-11T08:17:54.500Z,25.90
2017-07-11T08:20:22.081Z,25.10
2017-07-11T08:22:49.600Z,25.00
2017-07-11T08:25:17.132Z,25.00
2017-07-11T08:27:44.914Z,25.70
2017-07-11T08:30:12.437Z,25.80
2017-07-11T08:32:40.008Z,24.80
2017-07-11T08:35:07.677Z,23.60
2017-07-11T08:37:35.468Z,21.90
2017-07-11T08:40:03.347Z,20.80
2017-07-11T08:42:31.228Z,19.70
2017-07-11T08:44:58.861Z,19.00
2017-07-11T08:47:26.583Z,19.20
2017-07-11T08:49:54.817Z,19.70
2017-07-11T08:52:22.628Z,19.90
2017-07-11T08:54:50.225Z,20.20
2017-07-11T08:57:18.136Z,20.50
2017-07-11T08:59:45.888Z,20.00
2017-07-11T09:02:13.511Z,20.10
2017-07-11T09:04:41.327Z,19.70
2017-07-11T09:07:09.036Z,20.00
2017-07-11T09:09:36.976Z,20.80
2017-07-11T09:12:04.835Z,20.80
2017-07-11T09:14:32.681Z,21.20
2017-07-11T09:17:00.539Z,20.80
2017-07-11T09:19:28.404Z,21.10
2017-07-11T09:21:56.200Z,21.50
2017-07-11T09:24:23.729Z,21.70
2017-07-11T09:26:51.320Z,21.70
2017-07-11T09:29:18.828Z,21.20
2017-07-11T09:31:46.391Z,21.50
2017-07-11T09:34:13.964Z,21.60
2017-07-11T09:36:41.468Z,21.70
2017-07-11T09:39:09.152Z,22.20
2017-07-11T09:41:36.828Z,22.70
2017-07-11T09:44:04.701Z,23.00
2017-07-11T09:46:32.560Z,23.20
2017-07-11T09:49:00.399Z,24.80
2017-07-11T09:51:27.903Z,24.50
2017-07-11T09:53:55.926Z,24.80
2017-07-11T09:56:23.279Z,24.20
2017-07-11T09:58:50.832Z,24.00
2017-07-11T10:01:18.364Z,25.20
2017-07-11T10:03:46.053Z,25.40
2017-07-11T10:06:13.775Z,26.70
2017-07-11T10:08:41.644Z,26.10
2017-07-11T10:11:09.521Z,26.40
2017-07-11T10:13:37.177Z,26.80
2017-07-11T10:16:05.211Z,27.60
2017-07-11T10:18:33.219Z,29.10
2017-07-11T10:21:00.971Z,30.10
2017-07-11T10:23:28.625Z,30.60
2017-07-11T10:25:56.395Z,30.00
2017-07-11T10:28:24.171Z,27.80
2017-07-11T10:30:51.793Z,28.40
2017-07-11T10:33:19.576Z,27.40
2017-07-11T10:35:47.666Z,26.90
2017-07-11T10:38:15.198Z,26.50
2017-07-11T10:40:42.773Z,25.10
2017-07-11T10:43:10.405Z,25.40
2017-07-11T10:45:37.937Z,26.10
2017-07-11T10:48:05.523Z,25.50
2017-07-11T10:50:33.058Z,24.00
2017-07-11T10:53:00.573Z,24.30
2017-07-11T10:55:28.739Z,26.40
2017-07-11T10:57:57.068Z,26.30
2017-07-11T11:00:24.957Z,26.20
2017-07-11T11:02:52.644Z,25.40
2017-07-11T11:05:20.275Z,25.40
2017-07-11T11:07:47.813Z,24.70
2017-07-11T11:10:15.379Z,23.60
2017-07-11T11:12:42.952Z,23.30
2017-07-11T11:15:10.467Z,23.50
2017-07-11T11:17:38.344Z,23.50
2017-07-11T11:20:05.928Z,24.10
2017-07-11T11:22:33.601Z,24.60
2017-07-11T11:25:01.184Z,24.70
2017-07-11T11:27:28.701Z,25.20
2017-07-11T11:29:56.837Z,25.20
2017-07-11T11:32:24.392Z,25.50
2017-07-11T11:34:51.919Z,26.00
2017-07-11T11:37:19.441Z,26.30
2017-07-11T11:39:47.176Z,26.50
2017-07-11T11:42:18.336Z,26.20
2017-07-11T11:44:46.293Z,27.00
2017-07-11T11:47:14.040Z,25.80
2017-07-11T11:49:42.811Z,26.20
2017-07-11T11:52:10.623Z,26.40
2017-07-11T11:54:38.232Z,27.20
2017-07-11T11:57:05.978Z,26.90
2017-07-11T11:59:33.832Z,26.40
2017-07-11T12:02:01.876Z,27.20
2017-07-11T12:04:30.002Z,27.70
2017-07-11T12:06:57.786Z,27.80
2017-07-11T12:09:25.427Z,28.10
2017-07-11T12:11:53.120Z,28.90
2017-07-11T12:14:20.639Z,29.70
2017-07-11T12:16:48.523Z,29.50
2017-07-11T12:19:16.340Z,29.60
2017-07-11T12:21:44.159Z,31.40
2017-07-11T12:24:11.780Z,31.20
2017-07-11T12:26:39.585Z,29.70
2017-07-11T12:29:07.380Z,29.80
2017-07-11T12:31:35.032Z,30.60
2017-07-11T12:34:03.144Z,29.70
2017-07-11T12:36:30.837Z,31.90
2017-07-11T12:38:58.538Z,32.10
2017-07-11T12:41:26.272Z,31.30
2017-07-11T12:43:53.941Z,31.10
2017-07-11T12:46:21.712Z,31.40
2017-07-11T12:48:49.374Z,30.90
2017-07-11T12:51:16.875Z,31.70
2017-07-11T12:53:44.401Z,31.10
2017-07-11T12:56:12.220Z,29.50
2017-07-11T12:58:39.745Z,29.50
2017-07-11T13:01:07.251Z,28.30
2017-07-11T13:03:34.812Z,28.40
2017-07-11T13:06:02.409Z,27.80
2017-07-11T13:08:29.920Z,27.20
2017-07-11T13:10:57.545Z,27.30
2017-07-11T13:13:25.063Z,27.70
2017-07-11T13:15:52.574Z,28.10
2017-07-11T13:18:20.288Z,27.90
2017-07-11T13:20:47.820Z,27.70
2017-07-11T13:23:15.644Z,26.90
2017-07-11T13:25:43.442Z,26.40
2017-07-11T13:28:11.262Z,26.10
2017-07-11T13:30:38.795Z,26.70
2017-07-11T13:33:06.711Z,26.00
2017-07-11T13:35:34.491Z,26.20
2017-07-11T13:38:02.173Z,26.30
2017-07-11T13:40:30.312Z,26.10
2017-07-11T13:42:59.005Z,25.80
2017-07-11T13:45:26.073Z,26.10
2017-07-11T13:47:53.618Z,26.30
2017-07-11T13:50:21.194Z,26.40
2017-07-11T13:52:48.762Z,25.90
2017-07-11T13:55:16.348Z,25.90
2017-07-11T13:57:43.913Z,26.10
2017-07-11T14:00:11.432Z,26.20
2017-07-11T14:02:38.945Z,26.60
2017-07-11T14:05:06.538Z,26.30
2017-07-11T14:07:34.186Z,25.50
2017-07-11T14:10:01.726Z,25.90
2017-07-11T14:12:30.155Z,25.70
2017-07-11T14:14:57.819Z,25.30
2017-07-11T14:17:25.348Z,24.90
2017-07-11T14:19:53.792Z,24.50
2017-07-11T14:22:21.617Z,24.50
2017-07-11T14:24:49.137Z,24.60
2017-07-11T14:27:16.735Z,24.80
2017-07-11T14:29:44.277Z,25.20
2017-07-11T14:32:11.800Z,25.40
2017-07-11T14:34:39.713Z,25.10
2017-07-11T14:37:07.224Z,25.10
2017-07-11T14:39:34.742Z,25.10
2017-07-11T14:42:02.553Z,25.00
2017-07-11T14:44:30.459Z,24.50
2017-07-11T14:46:58.029Z,24.90
2017-07-11T14:49:25.658Z,25.10
2017-07-11T14:51:53.208Z,25.50
2017-07-11T14:54:20.790Z,25.70
2017-07-11T14:56:49.403Z,26.10
2017-07-11T14:59:17.136Z,26.50
2017-07-11T15:01:44.807Z,26.40
2017-07-11T15:04:12.348Z,26.10
2017-07-11T15:06:39.935Z,26.90
2017-07-11T15:09:07.501Z,26.90
2017-07-11T15:11:35.948Z,27.00
2017-07-11T15:14:03.520Z,27.90
2017-07-11T15:16:31.110Z,28.00
2017-07-11T15:18:58.620Z,28.30
2017-07-11T15:21:26.128Z,27.20
2017-07-11T15:23:53.926Z,27.40
2017-07-11T15:26:21.433Z,27.80
2017-07-11T15:28:48.941Z,28.30
2017-07-11T15:31:16.753Z,28.10
2017-07-11T15:33:44.261Z,28.60
2017-07-11T15:36:11.777Z,29.00
2017-07-11T15:38:39.692Z,29.10
2017-07-11T15:41:07.201Z,28.80
2017-07-11T15:43:34.713Z,28.70
2017-07-11T15:46:02.313Z,27.80
2017-07-11T15:48:29.825Z,28.40
2017-07-11T15:50:57.345Z,28.20
2017-07-11T15:53:25.005Z,28.40
2017-07-11T15:55:52.509Z,28.70
2017-07-11T15:58:20.034Z,28.60
2017-07-11T16:00:47.930Z,28.90
2017-07-11T16:03:15.448Z,28.80
2017-07-11T16:05:42.960Z,28.10
2017-07-11T16:08:10.693Z,27.40
2017-07-11T16:10:38.204Z,27.70
2017-07-11T16:13:05.740Z,26.80
2017-07-11T16:15:33.315Z,26.10
2017-07-11T16:18:00.936Z,26.10
2017-07-11T16:20:28.475Z,26.20
2017-07-11T16:22:56.403Z,26.10
2017-07-11T16:25:23.900Z,25.80
2017-07-11T16:27:51.400Z,26.00
2017-07-11T16:30:18.951Z,26.20
2017-07-11T16:32:46.524Z,26.40
2017-07-11T16:35:14.040Z,26.40
2017-07-11T16:37:41.603Z,26.20
2017-07-11T16:40:10.101Z,26.20
2017-07-11T16:42:37.696Z,26.20
2017-07-11T16:45:05.261Z,26.00
2017-07-11T16:47:32.777Z,25.60
2017-07-11T16:50:00.344Z,25.50
2017-07-11T16:52:27.914Z,25.70
2017-07-11T16:54:57.097Z,25.70
2017-07-11T16:57:24.805Z,26.00
2017-07-11T16:59:52.713Z,26.20
2017-07-11T17:02:20.235Z,25.70
2017-07-11T17:04:47.756Z,25.60
2017-07-11T17:07:15.564Z,25.20
2017-07-11T17:09:43.094Z,24.90
2017-07-11T17:12:10.599Z,24.90
2017-07-11T17:14:38.161Z,24.50
2017-07-11T17:17:05.679Z,24.30
2017-07-11T17:19:33.196Z,24.10
2017-07-11T17:22:01.127Z,24.00
2017-07-11T17:24:28.712Z,23.90
2017-07-11T17:26:56.234Z,24.00
2017-07-11T17:29:23.810Z,23.90
2017-07-11T17:31:51.615Z,24.00
2017-07-11T17:34:19.205Z,23.90
2017-07-11T17:36:47.417Z,23.90
2017-07-11T17:39:15.445Z,24.00
2017-07-11T17:41:43.112Z,24.00
2017-07-11T17:44:11.082Z,23.90
2017-07-11T17:46:38.952Z,23.90
2017-07-11T17:49:07.639Z,23.60
2017-07-11T17:51:35.992Z,23.60
2017-07-11T17:54:04.222Z,23.40
2017-07-11T17:56:32.012Z,23.40
2017-07-11T17:59:00.147Z,23.30
2017-07-11T18:01:27.832Z,23.30
2017-07-11T18:03:55.389Z,23.50
2017-07-11T18:06:23.119Z,23.70
2017-07-11T18:08:50.933Z,24.10
2017-07-11T18:11:18.603Z,24.70
2017-07-11T18:13:47.595Z,25.00
2017-07-11T18:16:15.194Z,25.10
2017-07-11T18:18:43.021Z,25.70
2017-07-11T18:21:10.580Z,26.30
2017-07-11T18:23:38.089Z,26.40
2017-07-11T18:26:05.599Z,26.60
2017-07-11T18:28:33.165Z,26.80
2017-07-11T18:31:00.704Z,26.60
2017-07-11T18:33:28.223Z,26.40
2017-07-11T18:35:56.080Z,26.30
2017-07-11T18:38:23.623Z,26.10
2017-07-11T18:40:51.166Z,26.20
2017-07-11T18:43:18.795Z,26.30
2017-07-11T18:45:46.342Z,25.80
2017-07-11T18:48:13.898Z,25.30
2017-07-11T18:50:41.482Z,24.90
2017-07-11T18:53:08.984Z,24.50
2017-07-11T18:55:36.822Z,24.20
2017-07-11T18:58:05.049Z,24.00
2017-07-11T19:00:32.628Z,23.60
2017-07-11T19:03:00.257Z,23.30
2017-07-11T19:05:28.397Z,23.00
2017-07-11T19:07:55.954Z,22.70
2017-07-11T19:10:23.459Z,22.50
2017-07-11T19:12:51.077Z,22.30
2017-07-11T19:15:18.583Z,22.20
2017-07-11T19:17:46.100Z,22.00
2017-07-11T19:20:13.659Z,22.00
2017-07-11T19:22:41.160Z,22.00
2017-07-11T19:25:08.819Z,21.90
2017-07-11T19:27:37.458Z,22.00
2017-07-11T19:30:04.968Z,22.00
2017-07-11T19:32:33.147Z,22.00
2017-07-11T19:35:01.127Z,22.00
2017-07-11T19:37:28.764Z,21.80
2017-07-11T19:39:56.505Z,21.90
2017-07-11T19:42:24.388Z,21.90
2017-07-11T19:44:51.985Z,21.90
2017-07-11T19:47:19.558Z,21.80
2017-07-11T19:49:48.248Z,21.80
2017-07-11T19:52:15.747Z,21.70
2017-07-11T19:54:43.294Z,21.60
2017-07-11T19:57:10.872Z,21.70
2017-07-11T19:59:38.400Z,21.90
2017-07-11T20:02:05.959Z,21.80
2017-07-11T20:04:33.824Z,21.70
2017-07-11T20:07:01.348Z,21.30
2017-07-11T20:09:28.856Z,21.30
2017-07-11T20:11:56.739Z,21.10
2017-07-11T20:14:24.272Z,20.90
2017-07-11T20:16:52.536Z,20.70
2017-07-11T20:19:20.424Z,20.50
2017-07-11T20:21:47.952Z,20.30
2017-07-11T20:24:15.460Z,20.30
2017-07-11T20:26:43.264Z,20.20
2017-07-11T20:29:10.816Z,20.10
2017-07-11T20:31:38.329Z,19.90
2017-07-11T20:34:05.909Z,19.70
2017-07-11T20:36:33.427Z,19.60
2017-07-11T20:39:00.928Z,19.50
2017-07-11T20:41:28.743Z,19.30
2017-07-11T20:43:56.249Z,19.10
2017-07-11T20:46:23.786Z,19.10
2017-07-11T20:48:51.605Z,19.00
2017-07-11T20:51:20.235Z,18.90
2017-07-11T20:53:48.081Z,18.70
2017-07-11T20:56:15.644Z,18.80
2017-07-11T20:58:43.192Z,18.70
2017-07-11T21:01:10.741Z,18.60
2017-07-11T21:03:38.252Z,18.50
2017-07-11T21:06:06.096Z,18.50
2017-07-11T21:08:33.698Z,18.40
2017-07-11T21:11:01.232Z,18.60
2017-07-11T21:13:28.745Z,18.60
2017-07-11T21:15:56.304Z,18.40
2017-07-11T21:18:23.824Z,18.50
2017-07-11T21:20:51.337Z,18.40
2017-07-11T21:23:19.017Z,18.30
2017-07-11T21:25:46.539Z,18.20
2017-07-11T21:28:14.085Z,18.20
2017-07-11T21:30:41.644Z,18.10
2017-07-11T21:33:09.153Z,18.10
2017-07-11T21:35:36.704Z,18.10
2017-07-11T21:38:04.364Z,18.10
2017-07-11T21:40:32.027Z,18.10
2017-07-11T21:42:59.551Z,18.20
2017-07-11T21:45:27.121Z,18.40
2017-07-11T21:47:54.819Z,18.40
2017-07-11T21:50:22.461Z,18.30
2017-07-11T21:52:50.064Z,18.20
2017-07-11T21:55:18.020Z,18.20
2017-07-11T21:57:45.535Z,18.20
2017-07-11T22:00:13.333Z,18.10
2017-07-11T22:02:41.071Z,18.00
2017-07-11T22:05:08.572Z,18.00
2017-07-11T22:07:36.140Z,17.90
2017-07-11T22:10:03.688Z,17.80
2017-07-11T22:12:31.259Z,17.80
2017-07-11T22:14:59.117Z,17.70
2017-07-11T22:17:26.620Z,17.70
2017-07-11T22:19:54.223Z,17.70
2017-07-11T22:22:21.884Z,17.60
2017-07-11T22:24:49.379Z,17.50
2017-07-11T22:27:16.920Z,17.40
2017-07-11T22:29:44.512Z,17.40
2017-07-11T22:32:12.048Z,17.30
2017-07-11T22:34:39.642Z,17.30
2017-07-11T22:37:07.410Z,17.20
2017-07-11T22:39:34.914Z,17.20
2017-07-11T22:42:02.429Z,17.20
2017-07-11T22:44:30.410Z,17.30
2017-07-11T22:46:57.916Z,17.30
2017-07-11T22:49:25.467Z,17.30
2017-07-11T22:51:53.041Z,17.30
2017-07-11T22:54:22.812Z,17.30
2017-07-11T22:56:50.580Z,17.40
2017-07-11T22:59:18.113Z,17.40
2017-07-11T23:01:45.764Z,17.40
2017-07-11T23:04:13.704Z,17.40
2017-07-11T23:06:41.508Z,17.60
2017-07-11T23:09:09.124Z,17.70
2017-07-11T23:11:36.647Z,17.70
2017-07-11T23:14:04.487Z,17.70
2017-07-11T23:16:32.061Z,17.90
2017-07-11T23:18:59.592Z,18.00
2017-07-11T23:21:27.378Z,18.10
2017-07-11T23:23:54.888Z,18.00
2017-07-11T23:26:22.404Z,18.00
2017-07-11T23:28:50.208Z,17.80
2017-07-11T23:31:17.727Z,17.80
2017-07-11T23:33:45.635Z,17.90
2017-07-11T23:36:13.270Z,18.00
2017-07-11T23:38:40.789Z,18.10
2017-07-11T23:41:08.320Z,18.10
2017-07-11T23:43:35.964Z,18.10
2017-07-11T23:46:03.623Z,18.10
2017-07-11T23:48:31.140Z,18.10
2017-07-11T23:50:58.760Z,18.00
2017-07-11T23:53:26.345Z,17.90
2017-07-11T23:55:53.883Z,17.80
2017-07-11T23:58:21.603Z,17.80
